sensor_id;sensor_type;location;lat;lon;timestamp;P1;durP1;ratioP1;P2;durP2;ratioP2
2388;SDS011;1205;47.984;7.668;2022-08-01T00:01:03;3.53;;;2.50;;
2388;SDS011;1205;47.984;7.668;2022-08-01T00:03:28;8.37;;;2.93;;
2388;SDS011;1205;47.984;7.668;2022-08-01T00:05:54;4.20;;;2.67;;
2388;SDS011;1205;47.984;7.668;2022-08-01T00:08:19;3.10;;;2.90;;
2388;SDS011;1205;47.984;7.668;2022-08-01T00:10:45;4.97;;;2.70;;
2388;SDS011;1205;47.984;7.668;2022-08-01T00:13:10;3.30;;;3.00;;
2388;SDS011;1205;47.984;7.668;2022-08-01T00:15:36;3.80;;;3.13;;
2388;SDS011;1205;47.984;7.668;2022-08-01T00:18:02;4.93;;;2.50;;
2388;SDS011;1205;47.984;7.668;2022-08-01T00:20:27;3.43;;;3.10;;
2388;SDS011;1205;47.984;7.668;2022-08-01T00:22:53;2.57;;;2.47;;
2388;SDS011;1205;47.984;7.668;2022-08-01T00:25:19;4.40;;;3.00;;
2388;SDS011;1205;47.984;7.668;2022-08-01T00:27:44;7.40;;;3.00;;
2388;SDS011;1205;47.984;7.668;2022-08-01T00:30:10;2.73;;;2.40;;
2388;SDS011;1205;47.984;7.668;2022-08-01T00:32:36;3.33;;;3.00;;
2388;SDS011;1205;47.984;7.668;2022-08-01T00:35:01;3.73;;;3.40;;
2388;SDS011;1205;47.984;7.668;2022-08-01T00:37:27;7.20;;;2.93;;
2388;SDS011;1205;47.984;7.668;2022-08-01T00:39:52;4.90;;;3.23;;
2388;SDS011;1205;47.984;7.668;2022-08-01T00:42:18;8.47;;;3.47;;
2388;SDS011;1205;47.984;7.668;2022-08-01T00:44:44;8.60;;;3.00;;
2388;SDS011;1205;47.984;7.668;2022-08-01T00:47:09;4.93;;;2.97;;
2388;SDS011;1205;47.984;7.668;2022-08-01T00:49:35;3.70;;;3.40;;
2388;SDS011;1205;47.984;7.668;2022-08-01T00:52:02;3.60;;;3.20;;
2388;SDS011;1205;47.984;7.668;2022-08-01T00:54:29;5.13;;;2.70;;
2388;SDS011;1205;47.984;7.668;2022-08-01T00:56:55;9.27;;;3.57;;
2388;SDS011;1205;47.984;7.668;2022-08-01T00:59:22;9.90;;;2.77;;
2388;SDS011;1205;47.984;7.668;2022-08-01T01:01:48;2.60;;;2.40;;
2388;SDS011;1205;47.984;7.668;2022-08-01T01:04:14;3.60;;;3.00;;
2388;SDS011;1205;47.984;7.668;2022-08-01T01:17:55;4.90;;;3.27;;
2388;SDS011;1205;47.984;7.668;2022-08-01T01:20:21;4.20;;;2.90;;
2388;SDS011;1205;47.984;7.668;2022-08-01T01:26:01;3.40;;;3.10;;
2388;SDS011;1205;47.984;7.668;2022-08-01T01:31:31;13.10;;;3.10;;
2388;SDS011;1205;47.984;7.668;2022-08-01T01:34:01;5.03;;;2.67;;
2388;SDS011;1205;47.984;7.668;2022-08-01T01:36:29;2.50;;;2.30;;
2388;SDS011;1205;47.984;7.668;2022-08-01T01:38:57;3.80;;;3.00;;
2388;SDS011;1205;47.984;7.668;2022-08-01T01:41:25;4.03;;;3.30;;
2388;SDS011;1205;47.984;7.668;2022-08-01T01:43:51;9.23;;;3.27;;
2388;SDS011;1205;47.984;7.668;2022-08-01T01:46:19;8.43;;;4.30;;
2388;SDS011;1205;47.984;7.668;2022-08-01T01:48:48;6.10;;;2.80;;
2388;SDS011;1205;47.984;7.668;2022-08-01T01:51:15;4.80;;;2.90;;
2388;SDS011;1205;47.984;7.668;2022-08-01T01:53:42;5.50;;;3.20;;
2388;SDS011;1205;47.984;7.668;2022-08-01T01:56:09;5.43;;;2.20;;
2388;SDS011;1205;47.984;7.668;2022-08-01T01:58:36;5.83;;;2.40;;
2388;SDS011;1205;47.984;7.668;2022-08-01T02:01:04;4.23;;;2.20;;
2388;SDS011;1205;47.984;7.668;2022-08-01T02:03:31;5.53;;;2.47;;
2388;SDS011;1205;47.984;7.668;2022-08-01T02:06:01;4.07;;;2.63;;
2388;SDS011;1205;47.984;7.668;2022-08-01T02:08:27;2.13;;;1.97;;
2388;SDS011;1205;47.984;7.668;2022-08-01T02:10:56;4.20;;;3.00;;
2388;SDS011;1205;47.984;7.668;2022-08-01T02:13:42;3.53;;;2.13;;
2388;SDS011;1205;47.984;7.668;2022-08-01T02:16:09;2.90;;;2.57;;
2388;SDS011;1205;47.984;7.668;2022-08-01T02:18:38;1.87;;;1.80;;
2388;SDS011;1205;47.984;7.668;2022-08-01T02:21:06;2.80;;;2.50;;
2388;SDS011;1205;47.984;7.668;2022-08-01T02:23:36;3.10;;;2.17;;
2388;SDS011;1205;47.984;7.668;2022-08-01T02:26:05;3.83;;;2.27;;
2388;SDS011;1205;47.984;7.668;2022-08-01T02:28:36;4.60;;;2.43;;
2388;SDS011;1205;47.984;7.668;2022-08-01T02:31:07;2.40;;;2.30;;
2388;SDS011;1205;47.984;7.668;2022-08-01T02:33:40;3.10;;;2.50;;
2388;SDS011;1205;47.984;7.668;2022-08-01T02:36:10;2.70;;;2.13;;
2388;SDS011;1205;47.984;7.668;2022-08-01T02:38:40;2.43;;;2.23;;
2388;SDS011;1205;47.984;7.668;2022-08-01T02:41:08;4.53;;;2.77;;
2388;SDS011;1205;47.984;7.668;2022-08-01T02:43:38;4.90;;;2.80;;
2388;SDS011;1205;47.984;7.668;2022-08-01T02:46:07;2.50;;;2.30;;
2388;SDS011;1205;47.984;7.668;2022-08-01T02:48:36;2.60;;;2.50;;
2388;SDS011;1205;47.984;7.668;2022-08-01T02:51:05;7.10;;;2.37;;
2388;SDS011;1205;47.984;7.668;2022-08-01T02:53:33;3.80;;;2.50;;
2388;SDS011;1205;47.984;7.668;2022-08-01T02:56:02;9.63;;;2.40;;
2388;SDS011;1205;47.984;7.668;2022-08-01T02:58:33;2.00;;;1.90;;
2388;SDS011;1205;47.984;7.668;2022-08-01T03:01:02;6.93;;;2.40;;
2388;SDS011;1205;47.984;7.668;2022-08-01T03:03:30;2.20;;;2.10;;
2388;SDS011;1205;47.984;7.668;2022-08-01T03:05:57;2.97;;;2.00;;
2388;SDS011;1205;47.984;7.668;2022-08-01T03:08:23;2.90;;;2.70;;
2388;SDS011;1205;47.984;7.668;2022-08-01T03:10:50;4.10;;;2.13;;
2388;SDS011;1205;47.984;7.668;2022-08-01T03:13:17;2.40;;;2.20;;
2388;SDS011;1205;47.984;7.668;2022-08-01T03:15:44;2.73;;;2.53;;
2388;SDS011;1205;47.984;7.668;2022-08-01T03:18:12;4.40;;;2.20;;
2388;SDS011;1205;47.984;7.668;2022-08-01T03:20:39;3.33;;;2.73;;
2388;SDS011;1205;47.984;7.668;2022-08-01T03:23:07;3.10;;;2.50;;
2388;SDS011;1205;47.984;7.668;2022-08-01T03:25:35;2.80;;;2.60;;
2388;SDS011;1205;47.984;7.668;2022-08-01T03:28:03;4.73;;;2.57;;
2388;SDS011;1205;47.984;7.668;2022-08-01T03:30:31;2.80;;;2.60;;
2388;SDS011;1205;47.984;7.668;2022-08-01T03:32:58;3.27;;;2.97;;
2388;SDS011;1205;47.984;7.668;2022-08-01T03:35:29;3.50;;;2.73;;
2388;SDS011;1205;47.984;7.668;2022-08-01T03:37:58;2.50;;;2.40;;
2388;SDS011;1205;47.984;7.668;2022-08-01T03:43:07;2.60;;;2.40;;
2388;SDS011;1205;47.984;7.668;2022-08-01T03:45:41;3.10;;;2.80;;
2388;SDS011;1205;47.984;7.668;2022-08-01T03:48:13;3.17;;;3.00;;
2388;SDS011;1205;47.984;7.668;2022-08-01T03:50:42;3.30;;;2.40;;
2388;SDS011;1205;47.984;7.668;2022-08-01T03:53:10;2.60;;;2.50;;
2388;SDS011;1205;47.984;7.668;2022-08-01T03:55:38;2.57;;;2.33;;
2388;SDS011;1205;47.984;7.668;2022-08-01T03:58:06;3.80;;;3.03;;
2388;SDS011;1205;47.984;7.668;2022-08-01T04:00:35;4.23;;;2.50;;
2388;SDS011;1205;47.984;7.668;2022-08-01T04:03:04;3.57;;;2.30;;
2388;SDS011;1205;47.984;7.668;2022-08-01T04:05:31;2.93;;;2.70;;
2388;SDS011;1205;47.984;7.668;2022-08-01T04:07:57;3.53;;;3.33;;
2388;SDS011;1205;47.984;7.668;2022-08-01T04:10:24;2.83;;;2.60;;
2388;SDS011;1205;47.984;7.668;2022-08-01T04:12:50;2.73;;;2.50;;
2388;SDS011;1205;47.984;7.668;2022-08-01T04:15:16;4.27;;;2.83;;
2388;SDS011;1205;47.984;7.668;2022-08-01T04:17:43;3.50;;;2.40;;
2388;SDS011;1205;47.984;7.668;2022-08-01T04:20:08;2.20;;;2.10;;
2388;SDS011;1205;47.984;7.668;2022-08-01T04:22:35;5.33;;;2.60;;
2388;SDS011;1205;47.984;7.668;2022-08-01T04:25:02;10.17;;;2.70;;
2388;SDS011;1205;47.984;7.668;2022-08-01T04:27:35;2.53;;;2.37;;
2388;SDS011;1205;47.984;7.668;2022-08-01T04:30:03;3.03;;;2.73;;
2388;SDS011;1205;47.984;7.668;2022-08-01T04:32:31;8.10;;;2.50;;
2388;SDS011;1205;47.984;7.668;2022-08-01T04:34:59;2.80;;;2.57;;
2388;SDS011;1205;47.984;7.668;2022-08-01T04:37:30;3.53;;;3.00;;
2388;SDS011;1205;47.984;7.668;2022-08-01T04:39:56;2.97;;;2.47;;
2388;SDS011;1205;47.984;7.668;2022-08-01T04:42:23;3.33;;;2.60;;
2388;SDS011;1205;47.984;7.668;2022-08-01T04:44:48;5.23;;;3.00;;
2388;SDS011;1205;47.984;7.668;2022-08-01T04:47:14;8.47;;;2.87;;
2388;SDS011;1205;47.984;7.668;2022-08-01T04:49:40;2.87;;;2.47;;
2388;SDS011;1205;47.984;7.668;2022-08-01T04:52:06;10.20;;;2.90;;
2388;SDS011;1205;47.984;7.668;2022-08-01T04:54:35;3.30;;;2.97;;
2388;SDS011;1205;47.984;7.668;2022-08-01T04:57:04;7.53;;;3.20;;
2388;SDS011;1205;47.984;7.668;2022-08-01T04:59:30;4.93;;;2.77;;
2388;SDS011;1205;47.984;7.668;2022-08-01T05:02:39;4.30;;;3.00;;
2388;SDS011;1205;47.984;7.668;2022-08-01T05:04:57;2.83;;;2.70;;
2388;SDS011;1205;47.984;7.668;2022-08-01T05:07:23;3.10;;;2.73;;
2388;SDS011;1205;47.984;7.668;2022-08-01T05:09:49;3.43;;;2.70;;
2388;SDS011;1205;47.984;7.668;2022-08-01T05:12:15;5.03;;;2.90;;
2388;SDS011;1205;47.984;7.668;2022-08-01T05:14:41;5.10;;;3.20;;
2388;SDS011;1205;47.984;7.668;2022-08-01T05:17:08;3.60;;;3.13;;
2388;SDS011;1205;47.984;7.668;2022-08-01T05:19:35;3.60;;;2.87;;
2388;SDS011;1205;47.984;7.668;2022-08-01T05:22:02;4.27;;;3.03;;
2388;SDS011;1205;47.984;7.668;2022-08-01T05:24:30;7.27;;;3.07;;
2388;SDS011;1205;47.984;7.668;2022-08-01T05:26:57;7.47;;;2.90;;
2388;SDS011;1205;47.984;7.668;2022-08-01T05:29:23;5.23;;;2.80;;
2388;SDS011;1205;47.984;7.668;2022-08-01T05:31:49;6.70;;;3.00;;
2388;SDS011;1205;47.984;7.668;2022-08-01T05:34:15;7.33;;;2.90;;
2388;SDS011;1205;47.984;7.668;2022-08-01T05:36:41;9.17;;;3.07;;
2388;SDS011;1205;47.984;7.668;2022-08-01T05:39:06;4.20;;;2.60;;
2388;SDS011;1205;47.984;7.668;2022-08-01T05:41:32;8.37;;;3.23;;
2388;SDS011;1205;47.984;7.668;2022-08-01T05:43:58;8.13;;;3.47;;
2388;SDS011;1205;47.984;7.668;2022-08-01T05:46:23;12.37;;;3.43;;
2388;SDS011;1205;47.984;7.668;2022-08-01T05:48:49;9.27;;;4.07;;
2388;SDS011;1205;47.984;7.668;2022-08-01T05:51:14;5.47;;;2.90;;
2388;SDS011;1205;47.984;7.668;2022-08-01T05:53:40;6.50;;;2.87;;
2388;SDS011;1205;47.984;7.668;2022-08-01T05:56:05;6.77;;;2.97;;
2388;SDS011;1205;47.984;7.668;2022-08-01T05:58:31;5.97;;;2.60;;
2388;SDS011;1205;47.984;7.668;2022-08-01T06:00:57;9.50;;;3.20;;
2388;SDS011;1205;47.984;7.668;2022-08-01T06:03:23;5.90;;;2.70;;
2388;SDS011;1205;47.984;7.668;2022-08-01T06:05:49;5.83;;;2.97;;
2388;SDS011;1205;47.984;7.668;2022-08-01T06:08:16;4.00;;;2.80;;
2388;SDS011;1205;47.984;7.668;2022-08-01T06:10:42;3.43;;;2.60;;
2388;SDS011;1205;47.984;7.668;2022-08-01T06:13:09;4.20;;;2.73;;
2388;SDS011;1205;47.984;7.668;2022-08-01T06:15:35;5.90;;;2.77;;
2388;SDS011;1205;47.984;7.668;2022-08-01T06:18:01;3.10;;;2.90;;
2388;SDS011;1205;47.984;7.668;2022-08-01T06:20:27;11.77;;;3.10;;
2388;SDS011;1205;47.984;7.668;2022-08-01T06:22:52;5.00;;;3.30;;
2388;SDS011;1205;47.984;7.668;2022-08-01T06:25:19;3.63;;;3.00;;
2388;SDS011;1205;47.984;7.668;2022-08-01T06:27:45;5.83;;;3.43;;
2388;SDS011;1205;47.984;7.668;2022-08-01T06:30:10;3.73;;;3.20;;
2388;SDS011;1205;47.984;7.668;2022-08-01T06:32:36;10.80;;;3.93;;
2388;SDS011;1205;47.984;7.668;2022-08-01T06:35:02;4.10;;;3.63;;
2388;SDS011;1205;47.984;7.668;2022-08-01T06:37:29;5.43;;;3.90;;
2388;SDS011;1205;47.984;7.668;2022-08-01T06:39:56;18.77;;;3.43;;
2388;SDS011;1205;47.984;7.668;2022-08-01T06:42:32;3.90;;;3.23;;
2388;SDS011;1205;47.984;7.668;2022-08-01T06:45:07;4.80;;;3.67;;
2388;SDS011;1205;47.984;7.668;2022-08-01T06:47:38;3.00;;;2.63;;
2388;SDS011;1205;47.984;7.668;2022-08-01T06:50:05;3.10;;;3.00;;
2388;SDS011;1205;47.984;7.668;2022-08-01T06:52:32;5.90;;;2.73;;
2388;SDS011;1205;47.984;7.668;2022-08-01T06:54:59;6.53;;;3.33;;
2388;SDS011;1205;47.984;7.668;2022-08-01T06:57:25;4.80;;;3.67;;
2388;SDS011;1205;47.984;7.668;2022-08-01T06:59:51;8.47;;;3.07;;
2388;SDS011;1205;47.984;7.668;2022-08-01T07:02:16;3.23;;;3.10;;
2388;SDS011;1205;47.984;7.668;2022-08-01T07:04:42;4.17;;;3.70;;
2388;SDS011;1205;47.984;7.668;2022-08-01T07:07:08;5.00;;;3.30;;
2388;SDS011;1205;47.984;7.668;2022-08-01T07:09:33;3.20;;;2.87;;
2388;SDS011;1205;47.984;7.668;2022-08-01T07:11:59;4.77;;;3.57;;
2388;SDS011;1205;47.984;7.668;2022-08-01T07:14:25;6.30;;;3.80;;
2388;SDS011;1205;47.984;7.668;2022-08-01T07:16:50;3.00;;;2.80;;
2388;SDS011;1205;47.984;7.668;2022-08-01T07:19:17;3.10;;;3.00;;
2388;SDS011;1205;47.984;7.668;2022-08-01T07:21:43;5.47;;;3.37;;
2388;SDS011;1205;47.984;7.668;2022-08-01T07:24:09;3.70;;;3.40;;
2388;SDS011;1205;47.984;7.668;2022-08-01T07:26:36;4.27;;;3.53;;
2388;SDS011;1205;47.984;7.668;2022-08-01T07:29:01;3.80;;;3.27;;
2388;SDS011;1205;47.984;7.668;2022-08-01T07:31:27;3.97;;;3.60;;
2388;SDS011;1205;47.984;7.668;2022-08-01T07:33:53;3.43;;;3.13;;
2388;SDS011;1205;47.984;7.668;2022-08-01T07:36:19;5.93;;;3.47;;
2388;SDS011;1205;47.984;7.668;2022-08-01T07:38:45;5.50;;;2.90;;
2388;SDS011;1205;47.984;7.668;2022-08-01T07:41:11;6.43;;;3.73;;
2388;SDS011;1205;47.984;7.668;2022-08-01T07:43:37;6.43;;;4.40;;
2388;SDS011;1205;47.984;7.668;2022-08-01T07:46:03;7.30;;;3.17;;
2388;SDS011;1205;47.984;7.668;2022-08-01T07:48:29;4.73;;;3.33;;
2388;SDS011;1205;47.984;7.668;2022-08-01T07:50:55;3.80;;;3.50;;
2388;SDS011;1205;47.984;7.668;2022-08-01T07:53:21;3.30;;;3.20;;
2388;SDS011;1205;47.984;7.668;2022-08-01T07:55:47;3.67;;;3.37;;
2388;SDS011;1205;47.984;7.668;2022-08-01T07:58:13;4.60;;;3.80;;
2388;SDS011;1205;47.984;7.668;2022-08-01T08:00:38;3.60;;;3.40;;
2388;SDS011;1205;47.984;7.668;2022-08-01T08:03:04;4.80;;;3.80;;
2388;SDS011;1205;47.984;7.668;2022-08-01T08:05:30;7.50;;;4.00;;
2388;SDS011;1205;47.984;7.668;2022-08-01T08:08:00;3.97;;;3.00;;
2388;SDS011;1205;47.984;7.668;2022-08-01T08:10:26;4.00;;;3.70;;
2388;SDS011;1205;47.984;7.668;2022-08-01T08:12:52;3.10;;;3.00;;
2388;SDS011;1205;47.984;7.668;2022-08-01T08:15:17;3.17;;;3.07;;
2388;SDS011;1205;47.984;7.668;2022-08-01T08:17:43;4.00;;;3.70;;
2388;SDS011;1205;47.984;7.668;2022-08-01T08:20:08;2.93;;;2.83;;
2388;SDS011;1205;47.984;7.668;2022-08-01T08:22:34;3.40;;;3.20;;
2388;SDS011;1205;47.984;7.668;2022-08-01T08:25:00;3.30;;;3.10;;
2388;SDS011;1205;47.984;7.668;2022-08-01T08:27:26;4.13;;;3.73;;
2388;SDS011;1205;47.984;7.668;2022-08-01T08:29:51;8.83;;;4.00;;
2388;SDS011;1205;47.984;7.668;2022-08-01T08:32:17;5.63;;;3.80;;
2388;SDS011;1205;47.984;7.668;2022-08-01T08:34:43;3.27;;;3.10;;
2388;SDS011;1205;47.984;7.668;2022-08-01T08:37:08;3.73;;;3.47;;
2388;SDS011;1205;47.984;7.668;2022-08-01T08:39:35;4.77;;;3.67;;
2388;SDS011;1205;47.984;7.668;2022-08-01T08:42:01;4.07;;;3.60;;
2388;SDS011;1205;47.984;7.668;2022-08-01T08:44:30;6.40;;;3.37;;
2388;SDS011;1205;47.984;7.668;2022-08-01T08:46:56;4.03;;;3.70;;
2388;SDS011;1205;47.984;7.668;2022-08-01T08:49:26;3.70;;;3.50;;
2388;SDS011;1205;47.984;7.668;2022-08-01T08:51:53;8.90;;;4.00;;
2388;SDS011;1205;47.984;7.668;2022-08-01T08:54:24;4.93;;;3.77;;
2388;SDS011;1205;47.984;7.668;2022-08-01T08:56:54;9.33;;;3.97;;
2388;SDS011;1205;47.984;7.668;2022-08-01T08:59:20;5.37;;;3.67;;
2388;SDS011;1205;47.984;7.668;2022-08-01T09:01:46;9.43;;;4.20;;
2388;SDS011;1205;47.984;7.668;2022-08-01T09:04:13;5.70;;;3.77;;
2388;SDS011;1205;47.984;7.668;2022-08-01T09:06:39;6.00;;;3.70;;
2388;SDS011;1205;47.984;7.668;2022-08-01T09:09:05;12.23;;;4.00;;
2388;SDS011;1205;47.984;7.668;2022-08-01T09:11:32;6.20;;;3.37;;
2388;SDS011;1205;47.984;7.668;2022-08-01T09:14:12;4.83;;;3.70;;
2388;SDS011;1205;47.984;7.668;2022-08-01T09:16:42;7.53;;;3.93;;
2388;SDS011;1205;47.984;7.668;2022-08-01T09:19:10;8.47;;;4.17;;
2388;SDS011;1205;47.984;7.668;2022-08-01T09:21:55;12.83;;;4.27;;
2388;SDS011;1205;47.984;7.668;2022-08-01T09:24:29;12.30;;;4.33;;
2388;SDS011;1205;47.984;7.668;2022-08-01T09:26:56;14.33;;;4.80;;
2388;SDS011;1205;47.984;7.668;2022-08-01T09:29:23;21.27;;;4.40;;
2388;SDS011;1205;47.984;7.668;2022-08-01T09:31:53;25.67;;;4.30;;
2388;SDS011;1205;47.984;7.668;2022-08-01T09:34:24;9.80;;;4.50;;
2388;SDS011;1205;47.984;7.668;2022-08-01T09:36:53;14.97;;;4.00;;
2388;SDS011;1205;47.984;7.668;2022-08-01T09:39:31;11.30;;;3.80;;
2388;SDS011;1205;47.984;7.668;2022-08-01T09:41:59;12.97;;;4.10;;
2388;SDS011;1205;47.984;7.668;2022-08-01T09:47:06;11.50;;;4.10;;
2388;SDS011;1205;47.984;7.668;2022-08-01T09:49:33;7.90;;;3.93;;
2388;SDS011;1205;47.984;7.668;2022-08-01T09:57:23;6.83;;;3.97;;
2388;SDS011;1205;47.984;7.668;2022-08-01T09:59:50;9.40;;;3.93;;
2388;SDS011;1205;47.984;7.668;2022-08-01T10:02:36;6.00;;;3.53;;
2388;SDS011;1205;47.984;7.668;2022-08-01T10:05:06;12.67;;;2.93;;
2388;SDS011;1205;47.984;7.668;2022-08-01T10:07:34;11.03;;;3.40;;
2388;SDS011;1205;47.984;7.668;2022-08-01T10:12:37;12.67;;;3.63;;
2388;SDS011;1205;47.984;7.668;2022-08-01T10:15:04;6.53;;;3.20;;
2388;SDS011;1205;47.984;7.668;2022-08-01T10:17:31;3.77;;;3.17;;
2388;SDS011;1205;47.984;7.668;2022-08-01T10:19:58;4.93;;;3.23;;
2388;SDS011;1205;47.984;7.668;2022-08-01T10:22:26;4.90;;;3.47;;
2388;SDS011;1205;47.984;7.668;2022-08-01T10:24:55;3.43;;;2.97;;
2388;SDS011;1205;47.984;7.668;2022-08-01T10:27:24;3.00;;;2.73;;
2388;SDS011;1205;47.984;7.668;2022-08-01T10:30:00;3.17;;;2.97;;
2388;SDS011;1205;47.984;7.668;2022-08-01T10:32:33;4.30;;;2.90;;
2388;SDS011;1205;47.984;7.668;2022-08-01T10:35:00;3.27;;;3.03;;
2388;SDS011;1205;47.984;7.668;2022-08-01T10:37:27;4.43;;;3.07;;
2388;SDS011;1205;47.984;7.668;2022-08-01T10:39:52;3.90;;;3.13;;
2388;SDS011;1205;47.984;7.668;2022-08-01T10:42:18;4.50;;;3.10;;
2388;SDS011;1205;47.984;7.668;2022-08-01T10:44:44;7.70;;;3.37;;
2388;SDS011;1205;47.984;7.668;2022-08-01T10:47:13;5.37;;;2.90;;
2388;SDS011;1205;47.984;7.668;2022-08-01T10:49:47;5.30;;;3.07;;
2388;SDS011;1205;47.984;7.668;2022-08-01T10:52:18;4.37;;;3.10;;
2388;SDS011;1205;47.984;7.668;2022-08-01T10:54:45;4.20;;;2.80;;
2388;SDS011;1205;47.984;7.668;2022-08-01T10:57:11;3.50;;;3.20;;
2388;SDS011;1205;47.984;7.668;2022-08-01T10:59:49;3.87;;;2.70;;
2388;SDS011;1205;47.984;7.668;2022-08-01T11:02:26;2.50;;;2.40;;
2388;SDS011;1205;47.984;7.668;2022-08-01T11:05:09;8.40;;;2.77;;
2388;SDS011;1205;47.984;7.668;2022-08-01T11:10:19;3.43;;;2.93;;
2388;SDS011;1205;47.984;7.668;2022-08-01T11:12:47;2.80;;;2.60;;
2388;SDS011;1205;47.984;7.668;2022-08-01T11:17:43;3.70;;;2.57;;
2388;SDS011;1205;47.984;7.668;2022-08-01T11:28:22;2.60;;;2.50;;
2388;SDS011;1205;47.984;7.668;2022-08-01T11:30:50;3.43;;;2.60;;
2388;SDS011;1205;47.984;7.668;2022-08-01T11:33:17;4.10;;;2.57;;
2388;SDS011;1205;47.984;7.668;2022-08-01T11:38:44;6.37;;;2.43;;
2388;SDS011;1205;47.984;7.668;2022-08-01T11:41:31;4.30;;;3.10;;
2388;SDS011;1205;47.984;7.668;2022-08-01T11:44:08;2.73;;;2.53;;
2388;SDS011;1205;47.984;7.668;2022-08-01T11:49:29;2.43;;;2.33;;
2388;SDS011;1205;47.984;7.668;2022-08-01T11:52:00;5.00;;;2.73;;
2388;SDS011;1205;47.984;7.668;2022-08-01T11:54:31;3.80;;;2.57;;
2388;SDS011;1205;47.984;7.668;2022-08-01T11:57:00;2.40;;;2.20;;
2388;SDS011;1205;47.984;7.668;2022-08-01T11:59:28;5.13;;;2.43;;
2388;SDS011;1205;47.984;7.668;2022-08-01T12:02:00;3.73;;;2.73;;
2388;SDS011;1205;47.984;7.668;2022-08-01T12:04:26;4.87;;;2.80;;
2388;SDS011;1205;47.984;7.668;2022-08-01T12:07:17;4.20;;;2.30;;
2388;SDS011;1205;47.984;7.668;2022-08-01T12:09:43;2.50;;;2.40;;
2388;SDS011;1205;47.984;7.668;2022-08-01T12:12:09;2.67;;;2.47;;
2388;SDS011;1205;47.984;7.668;2022-08-01T12:14:35;2.00;;;1.90;;
2388;SDS011;1205;47.984;7.668;2022-08-01T12:17:01;3.33;;;3.13;;
2388;SDS011;1205;47.984;7.668;2022-08-01T12:19:26;2.93;;;2.73;;
2388;SDS011;1205;47.984;7.668;2022-08-01T12:24:35;2.77;;;2.67;;
2388;SDS011;1205;47.984;7.668;2022-08-01T12:27:03;2.33;;;2.33;;
2388;SDS011;1205;47.984;7.668;2022-08-01T12:29:33;3.97;;;2.53;;
2388;SDS011;1205;47.984;7.668;2022-08-01T12:32:00;3.13;;;2.80;;
2388;SDS011;1205;47.984;7.668;2022-08-01T12:34:27;3.60;;;2.90;;
2388;SDS011;1205;47.984;7.668;2022-08-01T12:36:54;4.47;;;2.73;;
2388;SDS011;1205;47.984;7.668;2022-08-01T12:39:21;2.60;;;2.50;;
2388;SDS011;1205;47.984;7.668;2022-08-01T12:41:47;2.60;;;2.50;;
2388;SDS011;1205;47.984;7.668;2022-08-01T12:44:13;2.60;;;2.50;;
2388;SDS011;1205;47.984;7.668;2022-08-01T12:46:40;3.47;;;2.67;;
2388;SDS011;1205;47.984;7.668;2022-08-01T12:49:06;3.37;;;2.60;;
2388;SDS011;1205;47.984;7.668;2022-08-01T12:51:32;3.90;;;2.67;;
2388;SDS011;1205;47.984;7.668;2022-08-01T12:53:58;2.80;;;2.50;;
2388;SDS011;1205;47.984;7.668;2022-08-01T12:56:32;6.13;;;3.30;;
2388;SDS011;1205;47.984;7.668;2022-08-01T12:58:58;2.67;;;2.57;;
2388;SDS011;1205;47.984;7.668;2022-08-01T13:01:27;2.90;;;2.70;;
2388;SDS011;1205;47.984;7.668;2022-08-01T13:03:57;3.13;;;2.90;;
2388;SDS011;1205;47.984;7.668;2022-08-01T13:06:24;2.67;;;2.47;;
2388;SDS011;1205;47.984;7.668;2022-08-01T13:08:53;3.03;;;2.83;;
2388;SDS011;1205;47.984;7.668;2022-08-01T13:11:19;2.83;;;2.73;;
2388;SDS011;1205;47.984;7.668;2022-08-01T13:16:17;4.17;;;3.00;;
2388;SDS011;1205;47.984;7.668;2022-08-01T13:18:48;3.23;;;3.03;;
2388;SDS011;1205;47.984;7.668;2022-08-01T13:24:07;3.20;;;3.00;;
2388;SDS011;1205;47.984;7.668;2022-08-01T13:26:47;3.57;;;3.30;;
2388;SDS011;1205;47.984;7.668;2022-08-01T13:29:28;3.47;;;3.20;;
2388;SDS011;1205;47.984;7.668;2022-08-01T13:31:59;3.90;;;3.13;;
2388;SDS011;1205;47.984;7.668;2022-08-01T13:34:32;3.30;;;3.10;;
2388;SDS011;1205;47.984;7.668;2022-08-01T13:36:59;6.70;;;3.50;;
2388;SDS011;1205;47.984;7.668;2022-08-01T13:39:26;3.67;;;3.10;;
2388;SDS011;1205;47.984;7.668;2022-08-01T13:42:06;6.60;;;3.20;;
2388;SDS011;1205;47.984;7.668;2022-08-01T13:44:35;5.00;;;3.47;;
2388;SDS011;1205;47.984;7.668;2022-08-01T13:47:01;8.83;;;3.70;;
2388;SDS011;1205;47.984;7.668;2022-08-01T13:49:30;3.40;;;3.10;;
2388;SDS011;1205;47.984;7.668;2022-08-01T13:51:56;2.60;;;2.43;;
2388;SDS011;1205;47.984;7.668;2022-08-01T13:54:22;3.63;;;3.33;;
2388;SDS011;1205;47.984;7.668;2022-08-01T13:56:48;3.30;;;3.10;;
2388;SDS011;1205;47.984;7.668;2022-08-01T13:59:14;3.13;;;2.93;;
2388;SDS011;1205;47.984;7.668;2022-08-01T14:01:40;3.93;;;3.00;;
2388;SDS011;1205;47.984;7.668;2022-08-01T14:04:06;3.10;;;2.90;;
2388;SDS011;1205;47.984;7.668;2022-08-01T14:06:32;6.20;;;3.63;;
2388;SDS011;1205;47.984;7.668;2022-08-01T14:08:58;5.73;;;3.33;;
2388;SDS011;1205;47.984;7.668;2022-08-01T14:11:23;3.07;;;2.87;;
2388;SDS011;1205;47.984;7.668;2022-08-01T14:13:49;3.27;;;3.00;;
2388;SDS011;1205;47.984;7.668;2022-08-01T14:16:16;4.50;;;3.27;;
2388;SDS011;1205;47.984;7.668;2022-08-01T14:18:42;4.73;;;3.17;;
2388;SDS011;1205;47.984;7.668;2022-08-01T14:21:08;3.30;;;3.20;;
2388;SDS011;1205;47.984;7.668;2022-08-01T14:23:33;3.23;;;3.03;;
2388;SDS011;1205;47.984;7.668;2022-08-01T14:25:59;7.37;;;3.13;;
2388;SDS011;1205;47.984;7.668;2022-08-01T14:28:25;3.47;;;3.20;;
2388;SDS011;1205;47.984;7.668;2022-08-01T14:30:52;8.80;;;3.73;;
2388;SDS011;1205;47.984;7.668;2022-08-01T14:33:20;3.40;;;3.10;;
2388;SDS011;1205;47.984;7.668;2022-08-01T14:35:46;4.50;;;3.53;;
2388;SDS011;1205;47.984;7.668;2022-08-01T14:38:12;3.37;;;3.07;;
2388;SDS011;1205;47.984;7.668;2022-08-01T14:40:37;2.80;;;2.60;;
2388;SDS011;1205;47.984;7.668;2022-08-01T14:43:03;4.30;;;4.00;;
2388;SDS011;1205;47.984;7.668;2022-08-01T14:45:28;6.13;;;3.30;;
2388;SDS011;1205;47.984;7.668;2022-08-01T14:47:54;3.27;;;2.93;;
2388;SDS011;1205;47.984;7.668;2022-08-01T14:50:19;3.50;;;3.20;;
2388;SDS011;1205;47.984;7.668;2022-08-01T14:52:45;3.30;;;3.00;;
2388;SDS011;1205;47.984;7.668;2022-08-01T14:55:11;3.30;;;3.13;;
2388;SDS011;1205;47.984;7.668;2022-08-01T14:57:38;3.37;;;3.17;;
2388;SDS011;1205;47.984;7.668;2022-08-01T15:00:05;2.90;;;2.70;;
2388;SDS011;1205;47.984;7.668;2022-08-01T15:02:33;3.20;;;3.10;;
2388;SDS011;1205;47.984;7.668;2022-08-01T15:04:58;3.73;;;3.53;;
2388;SDS011;1205;47.984;7.668;2022-08-01T15:07:24;3.63;;;3.37;;
2388;SDS011;1205;47.984;7.668;2022-08-01T15:09:50;3.07;;;2.97;;
2388;SDS011;1205;47.984;7.668;2022-08-01T15:12:15;3.10;;;2.90;;
2388;SDS011;1205;47.984;7.668;2022-08-01T15:14:41;4.53;;;3.53;;
2388;SDS011;1205;47.984;7.668;2022-08-01T15:17:13;3.20;;;3.00;;
2388;SDS011;1205;47.984;7.668;2022-08-01T15:19:41;3.80;;;2.93;;
2388;SDS011;1205;47.984;7.668;2022-08-01T15:22:07;4.30;;;4.00;;
2388;SDS011;1205;47.984;7.668;2022-08-01T15:24:33;4.27;;;3.33;;
2388;SDS011;1205;47.984;7.668;2022-08-01T15:26:58;4.90;;;3.57;;
2388;SDS011;1205;47.984;7.668;2022-08-01T15:29:24;4.40;;;3.30;;
2388;SDS011;1205;47.984;7.668;2022-08-01T15:31:50;2.90;;;2.80;;
2388;SDS011;1205;47.984;7.668;2022-08-01T15:34:15;4.40;;;3.80;;
2388;SDS011;1205;47.984;7.668;2022-08-01T15:36:42;3.37;;;3.27;;
2388;SDS011;1205;47.984;7.668;2022-08-01T15:39:08;3.63;;;3.43;;
2388;SDS011;1205;47.984;7.668;2022-08-01T15:41:34;3.63;;;3.33;;
2388;SDS011;1205;47.984;7.668;2022-08-01T15:44:00;5.20;;;3.20;;
2388;SDS011;1205;47.984;7.668;2022-08-01T15:46:25;3.20;;;3.10;;
2388;SDS011;1205;47.984;7.668;2022-08-01T15:48:51;5.83;;;3.27;;
2388;SDS011;1205;47.984;7.668;2022-08-01T15:51:16;3.40;;;3.30;;
2388;SDS011;1205;47.984;7.668;2022-08-01T15:53:42;3.73;;;3.43;;
2388;SDS011;1205;47.984;7.668;2022-08-01T15:56:09;3.77;;;3.57;;
2388;SDS011;1205;47.984;7.668;2022-08-01T15:58:34;3.10;;;3.00;;
2388;SDS011;1205;47.984;7.668;2022-08-01T16:01:00;6.00;;;3.30;;
2388;SDS011;1205;47.984;7.668;2022-08-01T16:03:26;3.63;;;3.30;;
2388;SDS011;1205;47.984;7.668;2022-08-01T16:05:52;7.33;;;3.40;;
2388;SDS011;1205;47.984;7.668;2022-08-01T16:08:18;3.50;;;3.20;;
2388;SDS011;1205;47.984;7.668;2022-08-01T16:10:44;3.97;;;3.40;;
2388;SDS011;1205;47.984;7.668;2022-08-01T16:13:09;3.20;;;3.00;;
2388;SDS011;1205;47.984;7.668;2022-08-01T16:15:35;6.03;;;3.30;;